sensor_id;sensor_type;location;lat;lon;timestamp;P1;durP1;ratioP1;P2;durP2;ratioP2
23578;SDS011;11967;50.852;4.400;2022-08-25T00:01:32;8.65;;;3.55;;
23578;SDS011;11967;50.852;4.400;2022-08-25T00:04:02;6.13;;;3.70;;
23578;SDS011;11967;50.852;4.400;2022-08-25T00:06:30;8.43;;;3.83;;
23578;SDS011;11967;50.852;4.400;2022-08-25T00:08:56;8.35;;;3.47;;
23578;SDS011;11967;50.852;4.400;2022-08-25T00:11:24;6.95;;;3.50;;
23578;SDS011;11967;50.852;4.400;2022-08-25T00:13:53;5.75;;;3.70;;
23578;SDS011;11967;50.852;4.400;2022-08-25T00:16:22;6.38;;;3.38;;
23578;SDS011;11967;50.852;4.400;2022-08-25T00:18:53;6.43;;;3.60;;
23578;SDS011;11967;50.852;4.400;2022-08-25T00:21:21;6.68;;;3.67;;
23578;SDS011;11967;50.852;4.400;2022-08-25T00:23:47;13.00;;;4.55;;
23578;SDS011;11967;50.852;4.400;2022-08-25T00:26:13;6.70;;;4.00;;
23578;SDS011;11967;50.852;4.400;2022-08-25T00:28:40;9.73;;;4.10;;
23578;SDS011;11967;50.852;4.400;2022-08-25T00:31:06;8.30;;;3.80;;
23578;SDS011;11967;50.852;4.400;2022-08-25T00:33:36;10.30;;;3.70;;
23578;SDS011;11967;50.852;4.400;2022-08-25T00:36:02;8.63;;;3.97;;
23578;SDS011;11967;50.852;4.400;2022-08-25T00:38:28;8.02;;;4.28;;
23578;SDS011;11967;50.852;4.400;2022-08-25T00:40:54;6.53;;;4.30;;
23578;SDS011;11967;50.852;4.400;2022-08-25T00:46:10;6.03;;;3.85;;
23578;SDS011;11967;50.852;4.400;2022-08-25T00:48:37;7.45;;;4.13;;
23578;SDS011;11967;50.852;4.400;2022-08-25T00:51:04;5.53;;;3.65;;
23578;SDS011;11967;50.852;4.400;2022-08-25T00:53:33;6.70;;;3.95;;
23578;SDS011;11967;50.852;4.400;2022-08-25T00:55:59;7.63;;;4.20;;
23578;SDS011;11967;50.852;4.400;2022-08-25T00:58:26;7.90;;;4.20;;
23578;SDS011;11967;50.852;4.400;2022-08-25T01:00:55;9.13;;;4.57;;
23578;SDS011;11967;50.852;4.400;2022-08-25T01:03:30;8.15;;;4.43;;
23578;SDS011;11967;50.852;4.400;2022-08-25T01:05:58;6.68;;;4.40;;
23578;SDS011;11967;50.852;4.400;2022-08-25T01:08:26;6.05;;;4.10;;
23578;SDS011;11967;50.852;4.400;2022-08-25T01:10:53;6.43;;;4.40;;
23578;SDS011;11967;50.852;4.400;2022-08-25T01:13:29;10.60;;;4.68;;
23578;SDS011;11967;50.852;4.400;2022-08-25T01:15:58;9.30;;;4.53;;
23578;SDS011;11967;50.852;4.400;2022-08-25T01:18:26;6.07;;;4.38;;
23578;SDS011;11967;50.852;4.400;2022-08-25T01:20:55;7.05;;;4.35;;
23578;SDS011;11967;50.852;4.400;2022-08-25T01:23:22;8.10;;;4.93;;
23578;SDS011;11967;50.852;4.400;2022-08-25T01:25:57;8.38;;;4.75;;
23578;SDS011;11967;50.852;4.400;2022-08-25T01:28:29;9.98;;;4.65;;
23578;SDS011;11967;50.852;4.400;2022-08-25T01:30:55;8.18;;;4.65;;
23578;SDS011;11967;50.852;4.400;2022-08-25T01:33:20;10.43;;;4.70;;
23578;SDS011;11967;50.852;4.400;2022-08-25T01:35:48;7.32;;;4.40;;
23578;SDS011;11967;50.852;4.400;2022-08-25T01:38:15;7.15;;;4.50;;
23578;SDS011;11967;50.852;4.400;2022-08-25T01:40:41;8.73;;;4.57;;
23578;SDS011;11967;50.852;4.400;2022-08-25T01:43:16;8.73;;;5.00;;
23578;SDS011;11967;50.852;4.400;2022-08-25T01:45:50;8.90;;;5.13;;
23578;SDS011;11967;50.852;4.400;2022-08-25T01:48:17;6.50;;;4.65;;
23578;SDS011;11967;50.852;4.400;2022-08-25T01:50:43;8.27;;;4.57;;
23578;SDS011;11967;50.852;4.400;2022-08-25T01:53:21;5.55;;;4.65;;
23578;SDS011;11967;50.852;4.400;2022-08-25T01:55:50;9.88;;;4.82;;
23578;SDS011;11967;50.852;4.400;2022-08-25T01:58:19;7.72;;;5.32;;
23578;SDS011;11967;50.852;4.400;2022-08-25T02:00:47;7.28;;;5.22;;
23578;SDS011;11967;50.852;4.400;2022-08-25T02:03:14;11.52;;;5.68;;
23578;SDS011;11967;50.852;4.400;2022-08-25T02:05:41;6.47;;;5.65;;
23578;SDS011;11967;50.852;4.400;2022-08-25T02:08:07;7.00;;;5.57;;
23578;SDS011;11967;50.852;4.400;2022-08-25T02:10:33;9.82;;;5.40;;
23578;SDS011;11967;50.852;4.400;2022-08-25T02:12:59;9.88;;;5.55;;
23578;SDS011;11967;50.852;4.400;2022-08-25T02:15:25;10.30;;;5.80;;
23578;SDS011;11967;50.852;4.400;2022-08-25T02:17:50;10.88;;;5.43;;
23578;SDS011;11967;50.852;4.400;2022-08-25T02:20:16;11.05;;;5.10;;
23578;SDS011;11967;50.852;4.400;2022-08-25T02:22:42;12.82;;;5.68;;
23578;SDS011;11967;50.852;4.400;2022-08-25T02:25:08;10.38;;;5.47;;
23578;SDS011;11967;50.852;4.400;2022-08-25T02:27:34;10.25;;;6.10;;
23578;SDS011;11967;50.852;4.400;2022-08-25T02:30:00;8.18;;;5.80;;
23578;SDS011;11967;50.852;4.400;2022-08-25T02:32:26;8.98;;;5.85;;
23578;SDS011;11967;50.852;4.400;2022-08-25T02:34:52;12.60;;;5.72;;
23578;SDS011;11967;50.852;4.400;2022-08-25T02:37:17;8.32;;;5.35;;
23578;SDS011;11967;50.852;4.400;2022-08-25T02:39:48;8.57;;;5.00;;
23578;SDS011;11967;50.852;4.400;2022-08-25T02:42:14;5.78;;;5.15;;
23578;SDS011;11967;50.852;4.400;2022-08-25T02:44:39;13.82;;;5.80;;
23578;SDS011;11967;50.852;4.400;2022-08-25T02:47:05;8.23;;;5.18;;
23578;SDS011;11967;50.852;4.400;2022-08-25T02:49:30;11.90;;;5.43;;
23578;SDS011;11967;50.852;4.400;2022-08-25T02:51:57;6.18;;;4.78;;
23578;SDS011;11967;50.852;4.400;2022-08-25T02:54:24;10.43;;;4.63;;
23578;SDS011;11967;50.852;4.400;2022-08-25T02:56:51;12.93;;;5.10;;
23578;SDS011;11967;50.852;4.400;2022-08-25T02:59:16;10.18;;;5.03;;
23578;SDS011;11967;50.852;4.400;2022-08-25T03:01:43;7.47;;;4.88;;
23578;SDS011;11967;50.852;4.400;2022-08-25T03:04:09;10.27;;;4.75;;
23578;SDS011;11967;50.852;4.400;2022-08-25T03:06:34;8.75;;;4.40;;
23578;SDS011;11967;50.852;4.400;2022-08-25T03:09:00;8.63;;;4.35;;
23578;SDS011;11967;50.852;4.400;2022-08-25T03:11:26;9.80;;;4.70;;
23578;SDS011;11967;50.852;4.400;2022-08-25T03:13:52;7.15;;;4.20;;
23578;SDS011;11967;50.852;4.400;2022-08-25T03:16:19;7.50;;;4.30;;
23578;SDS011;11967;50.852;4.400;2022-08-25T03:18:45;6.57;;;4.07;;
23578;SDS011;11967;50.852;4.400;2022-08-25T03:21:12;6.35;;;4.10;;
23578;SDS011;11967;50.852;4.400;2022-08-25T03:23:39;6.15;;;3.90;;
23578;SDS011;11967;50.852;4.400;2022-08-25T03:26:05;8.45;;;3.90;;
23578;SDS011;11967;50.852;4.400;2022-08-25T03:28:50;14.38;;;3.72;;
23578;SDS011;11967;50.852;4.400;2022-08-25T03:31:16;7.53;;;3.67;;
23578;SDS011;11967;50.852;4.400;2022-08-25T03:33:43;6.30;;;3.38;;
23578;SDS011;11967;50.852;4.400;2022-08-25T03:36:08;7.68;;;3.78;;
23578;SDS011;11967;50.852;4.400;2022-08-25T03:38:37;6.65;;;3.90;;
23578;SDS011;11967;50.852;4.400;2022-08-25T03:41:13;8.80;;;3.53;;
23578;SDS011;11967;50.852;4.400;2022-08-25T03:43:41;12.02;;;3.70;;
23578;SDS011;11967;50.852;4.400;2022-08-25T03:46:07;7.20;;;3.00;;
23578;SDS011;11967;50.852;4.400;2022-08-25T03:48:34;4.03;;;2.92;;
23578;SDS011;11967;50.852;4.400;2022-08-25T03:50:59;10.57;;;3.42;;
23578;SDS011;11967;50.852;4.400;2022-08-25T03:53:25;7.75;;;3.70;;
23578;SDS011;11967;50.852;4.400;2022-08-25T03:55:50;7.03;;;3.90;;
23578;SDS011;11967;50.852;4.400;2022-08-25T03:58:16;11.18;;;3.65;;
23578;SDS011;11967;50.852;4.400;2022-08-25T04:00:42;6.40;;;3.20;;
23578;SDS011;11967;50.852;4.400;2022-08-25T04:03:08;8.05;;;3.50;;
23578;SDS011;11967;50.852;4.400;2022-08-25T04:05:34;6.35;;;3.75;;
23578;SDS011;11967;50.852;4.400;2022-08-25T04:08:00;9.85;;;4.03;;
23578;SDS011;11967;50.852;4.400;2022-08-25T04:10:26;7.68;;;4.25;;
23578;SDS011;11967;50.852;4.400;2022-08-25T04:12:51;7.35;;;3.70;;
23578;SDS011;11967;50.852;4.400;2022-08-25T04:15:17;9.18;;;4.05;;
23578;SDS011;11967;50.852;4.400;2022-08-25T04:17:43;9.93;;;4.60;;
23578;SDS011;11967;50.852;4.400;2022-08-25T04:20:10;9.25;;;4.47;;
23578;SDS011;11967;50.852;4.400;2022-08-25T04:22:36;8.48;;;4.18;;
23578;SDS011;11967;50.852;4.400;2022-08-25T04:25:02;10.52;;;4.88;;
23578;SDS011;11967;50.852;4.400;2022-08-25T04:27:29;8.68;;;4.22;;
23578;SDS011;11967;50.852;4.400;2022-08-25T04:29:55;10.88;;;4.07;;
23578;SDS011;11967;50.852;4.400;2022-08-25T04:32:20;10.93;;;4.15;;
23578;SDS011;11967;50.852;4.400;2022-08-25T04:34:53;9.48;;;4.03;;
23578;SDS011;11967;50.852;4.400;2022-08-25T04:37:19;7.38;;;3.30;;
23578;SDS011;11967;50.852;4.400;2022-08-25T04:39:45;9.50;;;3.95;;
23578;SDS011;11967;50.852;4.400;2022-08-25T04:42:10;12.48;;;3.58;;
23578;SDS011;11967;50.852;4.400;2022-08-25T04:44:36;5.90;;;3.65;;
23578;SDS011;11967;50.852;4.400;2022-08-25T04:47:01;9.20;;;3.45;;
23578;SDS011;11967;50.852;4.400;2022-08-25T04:49:28;8.32;;;3.63;;
23578;SDS011;11967;50.852;4.400;2022-08-25T04:51:53;6.32;;;3.60;;
23578;SDS011;11967;50.852;4.400;2022-08-25T04:54:21;6.55;;;3.35;;
23578;SDS011;11967;50.852;4.400;2022-08-25T04:56:48;9.80;;;3.88;;
23578;SDS011;11967;50.852;4.400;2022-08-25T04:59:15;4.40;;;3.25;;
23578;SDS011;11967;50.852;4.400;2022-08-25T05:01:42;7.72;;;2.95;;
23578;SDS011;11967;50.852;4.400;2022-08-25T05:04:11;11.18;;;3.53;;
23578;SDS011;11967;50.852;4.400;2022-08-25T05:06:45;5.70;;;3.25;;
23578;SDS011;11967;50.852;4.400;2022-08-25T05:09:11;9.02;;;3.63;;
23578;SDS011;11967;50.852;4.400;2022-08-25T05:11:36;7.97;;;3.08;;
23578;SDS011;11967;50.852;4.400;2022-08-25T05:14:03;6.43;;;3.45;;
23578;SDS011;11967;50.852;4.400;2022-08-25T05:16:29;7.97;;;3.47;;
23578;SDS011;11967;50.852;4.400;2022-08-25T05:18:55;7.60;;;3.08;;
23578;SDS011;11967;50.852;4.400;2022-08-25T05:21:22;5.57;;;3.17;;
23578;SDS011;11967;50.852;4.400;2022-08-25T05:23:52;5.60;;;3.15;;
23578;SDS011;11967;50.852;4.400;2022-08-25T05:26:23;8.07;;;3.00;;
23578;SDS011;11967;50.852;4.400;2022-08-25T05:28:50;4.72;;;3.03;;
23578;SDS011;11967;50.852;4.400;2022-08-25T05:31:17;6.57;;;3.08;;
23578;SDS011;11967;50.852;4.400;2022-08-25T05:33:43;5.57;;;3.10;;
23578;SDS011;11967;50.852;4.400;2022-08-25T05:36:10;6.13;;;3.00;;
23578;SDS011;11967;50.852;4.400;2022-08-25T05:38:37;6.47;;;3.20;;
23578;SDS011;11967;50.852;4.400;2022-08-25T05:41:06;10.82;;;3.20;;
23578;SDS011;11967;50.852;4.400;2022-08-25T05:43:35;6.03;;;2.80;;
23578;SDS011;11967;50.852;4.400;2022-08-25T05:46:01;6.57;;;3.22;;
23578;SDS011;11967;50.852;4.400;2022-08-25T05:48:27;4.63;;;3.00;;
23578;SDS011;11967;50.852;4.400;2022-08-25T05:50:54;9.95;;;3.30;;
23578;SDS011;11967;50.852;4.400;2022-08-25T05:53:23;7.68;;;3.35;;
23578;SDS011;11967;50.852;4.400;2022-08-25T05:55:52;6.35;;;3.65;;
23578;SDS011;11967;50.852;4.400;2022-08-25T05:58:22;8.88;;;3.65;;
23578;SDS011;11967;50.852;4.400;2022-08-25T06:00:54;7.45;;;3.38;;
23578;SDS011;11967;50.852;4.400;2022-08-25T06:03:21;7.32;;;3.33;;
23578;SDS011;11967;50.852;4.400;2022-08-25T06:05:47;5.05;;;3.20;;
23578;SDS011;11967;50.852;4.400;2022-08-25T06:08:12;5.82;;;3.00;;
23578;SDS011;11967;50.852;4.400;2022-08-25T06:10:39;5.80;;;3.10;;
23578;SDS011;11967;50.852;4.400;2022-08-25T06:13:05;7.20;;;3.10;;
23578;SDS011;11967;50.852;4.400;2022-08-25T06:15:31;9.80;;;2.90;;
23578;SDS011;11967;50.852;4.400;2022-08-25T06:17:57;11.15;;;3.10;;
23578;SDS011;11967;50.852;4.400;2022-08-25T06:20:26;11.73;;;2.97;;
23578;SDS011;11967;50.852;4.400;2022-08-25T06:22:53;5.07;;;2.88;;
23578;SDS011;11967;50.852;4.400;2022-08-25T06:25:20;7.18;;;2.72;;
23578;SDS011;11967;50.852;4.400;2022-08-25T06:27:47;6.32;;;3.08;;
23578;SDS011;11967;50.852;4.400;2022-08-25T06:30:14;7.72;;;2.80;;
23578;SDS011;11967;50.852;4.400;2022-08-25T06:32:43;8.48;;;2.75;;
23578;SDS011;11967;50.852;4.400;2022-08-25T06:35:11;9.85;;;3.08;;
23578;SDS011;11967;50.852;4.400;2022-08-25T06:37:38;7.55;;;2.88;;
23578;SDS011;11967;50.852;4.400;2022-08-25T06:40:06;9.00;;;3.10;;
23578;SDS011;11967;50.852;4.400;2022-08-25T06:42:32;10.50;;;3.13;;
23578;SDS011;11967;50.852;4.400;2022-08-25T06:44:58;11.75;;;2.75;;
23578;SDS011;11967;50.852;4.400;2022-08-25T06:47:25;10.18;;;3.10;;
23578;SDS011;11967;50.852;4.400;2022-08-25T06:49:50;8.65;;;2.88;;
23578;SDS011;11967;50.852;4.400;2022-08-25T06:52:16;9.15;;;3.45;;
23578;SDS011;11967;50.852;4.400;2022-08-25T06:54:42;12.23;;;3.10;;
23578;SDS011;11967;50.852;4.400;2022-08-25T06:57:08;8.93;;;3.20;;
23578;SDS011;11967;50.852;4.400;2022-08-25T06:59:34;9.73;;;3.22;;
23578;SDS011;11967;50.852;4.400;2022-08-25T07:02:01;10.80;;;3.22;;
23578;SDS011;11967;50.852;4.400;2022-08-25T07:04:28;7.68;;;2.70;;
23578;SDS011;11967;50.852;4.400;2022-08-25T07:06:54;4.97;;;2.92;;
23578;SDS011;11967;50.852;4.400;2022-08-25T07:09:23;9.40;;;3.08;;
23578;SDS011;11967;50.852;4.400;2022-08-25T07:11:48;8.02;;;2.80;;
23578;SDS011;11967;50.852;4.400;2022-08-25T07:14:21;7.55;;;3.10;;
23578;SDS011;11967;50.852;4.400;2022-08-25T07:16:47;7.75;;;2.80;;
23578;SDS011;11967;50.852;4.400;2022-08-25T07:19:13;10.40;;;2.90;;
23578;SDS011;11967;50.852;4.400;2022-08-25T07:21:40;6.63;;;2.83;;
23578;SDS011;11967;50.852;4.400;2022-08-25T07:24:10;8.35;;;3.17;;
23578;SDS011;11967;50.852;4.400;2022-08-25T07:26:37;9.27;;;2.60;;
23578;SDS011;11967;50.852;4.400;2022-08-25T07:29:07;6.00;;;3.13;;
23578;SDS011;11967;50.852;4.400;2022-08-25T07:31:35;3.90;;;2.65;;
23578;SDS011;11967;50.852;4.400;2022-08-25T07:34:00;6.38;;;2.65;;
23578;SDS011;11967;50.852;4.400;2022-08-25T07:36:44;6.85;;;2.95;;
23578;SDS011;11967;50.852;4.400;2022-08-25T07:39:10;6.50;;;2.92;;
23578;SDS011;11967;50.852;4.400;2022-08-25T07:41:37;9.70;;;3.45;;
23578;SDS011;11967;50.852;4.400;2022-08-25T07:44:04;6.53;;;2.85;;
23578;SDS011;11967;50.852;4.400;2022-08-25T07:46:31;5.53;;;2.88;;
23578;SDS011;11967;50.852;4.400;2022-08-25T07:48:58;9.75;;;2.78;;
23578;SDS011;11967;50.852;4.400;2022-08-25T07:51:23;11.50;;;2.70;;
23578;SDS011;11967;50.852;4.400;2022-08-25T07:53:49;6.90;;;2.97;;
23578;SDS011;11967;50.852;4.400;2022-08-25T07:56:15;8.65;;;2.92;;
23578;SDS011;11967;50.852;4.400;2022-08-25T07:58:43;7.70;;;3.40;;
23578;SDS011;11967;50.852;4.400;2022-08-25T08:01:15;8.70;;;2.70;;
23578;SDS011;11967;50.852;4.400;2022-08-25T08:03:45;4.28;;;2.63;;
23578;SDS011;11967;50.852;4.400;2022-08-25T08:06:12;6.70;;;2.50;;
23578;SDS011;11967;50.852;4.400;2022-08-25T08:08:41;7.72;;;2.85;;
23578;SDS011;11967;50.852;4.400;2022-08-25T08:13:45;6.78;;;2.50;;
23578;SDS011;11967;50.852;4.400;2022-08-25T08:16:13;5.82;;;2.45;;
23578;SDS011;11967;50.852;4.400;2022-08-25T08:18:40;6.65;;;2.42;;
23578;SDS011;11967;50.852;4.400;2022-08-25T08:21:14;7.07;;;2.75;;
23578;SDS011;11967;50.852;4.400;2022-08-25T08:23:40;16.30;;;2.70;;
23578;SDS011;11967;50.852;4.400;2022-08-25T08:26:06;5.78;;;2.47;;
23578;SDS011;11967;50.852;4.400;2022-08-25T08:28:32;6.45;;;2.58;;
23578;SDS011;11967;50.852;4.400;2022-08-25T08:30:57;8.15;;;2.72;;
23578;SDS011;11967;50.852;4.400;2022-08-25T08:33:23;10.02;;;2.60;;
23578;SDS011;11967;50.852;4.400;2022-08-25T08:35:59;5.45;;;2.85;;
23578;SDS011;11967;50.852;4.400;2022-08-25T08:38:33;7.60;;;2.80;;
23578;SDS011;11967;50.852;4.400;2022-08-25T08:44:32;7.63;;;2.50;;
23578;SDS011;11967;50.852;4.400;2022-08-25T08:58:07;6.93;;;2.50;;
23578;SDS011;11967;50.852;4.400;2022-08-25T09:00:47;6.20;;;2.78;;
23578;SDS011;11967;50.852;4.400;2022-08-25T09:03:31;5.70;;;2.95;;
23578;SDS011;11967;50.852;4.400;2022-08-25T09:05:59;9.88;;;2.85;;
23578;SDS011;11967;50.852;4.400;2022-08-25T09:08:28;5.88;;;2.70;;
23578;SDS011;11967;50.852;4.400;2022-08-25T09:19:30;5.35;;;2.15;;
23578;SDS011;11967;50.852;4.400;2022-08-25T09:30:00;5.35;;;2.42;;
23578;SDS011;11967;50.852;4.400;2022-08-25T09:32:37;4.53;;;2.20;;
23578;SDS011;11967;50.852;4.400;2022-08-25T09:38:01;7.05;;;2.67;;
23578;SDS011;11967;50.852;4.400;2022-08-25T09:40:28;5.38;;;2.50;;
23578;SDS011;11967;50.852;4.400;2022-08-25T09:42:56;4.13;;;2.25;;
23578;SDS011;11967;50.852;4.400;2022-08-25T09:45:39;6.47;;;2.53;;
23578;SDS011;11967;50.852;4.400;2022-08-25T09:50:48;6.35;;;2.13;;
23578;SDS011;11967;50.852;4.400;2022-08-25T09:53:18;3.95;;;2.50;;
23578;SDS011;11967;50.852;4.400;2022-08-25T09:55:45;5.03;;;1.92;;
23578;SDS011;11967;50.852;4.400;2022-08-25T09:58:21;11.55;;;2.78;;
23578;SDS011;11967;50.852;4.400;2022-08-25T10:03:28;4.05;;;2.03;;
23578;SDS011;11967;50.852;4.400;2022-08-25T10:09:08;4.95;;;2.40;;
23578;SDS011;11967;50.852;4.400;2022-08-25T10:11:09;7.05;;;2.40;;
23578;SDS011;11967;50.852;4.400;2022-08-25T10:13:46;4.32;;;2.17;;
23578;SDS011;11967;50.852;4.400;2022-08-25T10:16:23;4.30;;;2.22;;
23578;SDS011;11967;50.852;4.400;2022-08-25T10:19:07;5.90;;;2.45;;
23578;SDS011;11967;50.852;4.400;2022-08-25T10:21:39;5.80;;;2.35;;
23578;SDS011;11967;50.852;4.400;2022-08-25T10:24:09;6.05;;;2.53;;
23578;SDS011;11967;50.852;4.400;2022-08-25T10:35:14;2.93;;;2.10;;
23578;SDS011;11967;50.852;4.400;2022-08-25T10:37:59;5.55;;;2.40;;
23578;SDS011;11967;50.852;4.400;2022-08-25T10:46:15;5.43;;;2.33;;
23578;SDS011;11967;50.852;4.400;2022-08-25T10:48:55;5.18;;;2.00;;
23578;SDS011;11967;50.852;4.400;2022-08-25T10:59:40;5.68;;;2.10;;
23578;SDS011;11967;50.852;4.400;2022-08-25T11:07:57;4.30;;;2.10;;
23578;SDS011;11967;50.852;4.400;2022-08-25T11:13:03;6.78;;;2.45;;
23578;SDS011;11967;50.852;4.400;2022-08-25T11:20:36;5.63;;;2.15;;
23578;SDS011;11967;50.852;4.400;2022-08-25T11:23:10;7.40;;;2.28;;
23578;SDS011;11967;50.852;4.400;2022-08-25T11:25:44;6.40;;;2.33;;
23578;SDS011;11967;50.852;4.400;2022-08-25T11:28:15;4.72;;;2.05;;
23578;SDS011;11967;50.852;4.400;2022-08-25T11:31:15;7.75;;;2.42;;
23578;SDS011;11967;50.852;4.400;2022-08-25T11:33:42;5.15;;;2.10;;
23578;SDS011;11967;50.852;4.400;2022-08-25T11:36:14;4.85;;;1.90;;
23578;SDS011;11967;50.852;4.400;2022-08-25T11:52:49;4.25;;;2.13;;
23578;SDS011;11967;50.852;4.400;2022-08-25T11:55:19;6.60;;;2.10;;
23578;SDS011;11967;50.852;4.400;2022-08-25T12:00:47;4.90;;;2.67;;
23578;SDS011;11967;50.852;4.400;2022-08-25T12:32:46;4.97;;;2.38;;
23578;SDS011;11967;50.852;4.400;2022-08-25T12:38:25;7.20;;;2.45;;
23578;SDS011;11967;50.852;4.400;2022-08-25T12:43:28;5.93;;;2.30;;
23578;SDS011;11967;50.852;4.400;2022-08-25T12:54:10;4.00;;;2.42;;
23578;SDS011;11967;50.852;4.400;2022-08-25T12:56:42;5.90;;;2.40;;
23578;SDS011;11967;50.852;4.400;2022-08-25T13:10:06;4.57;;;2.50;;
23578;SDS011;11967;50.852;4.400;2022-08-25T13:12:52;4.55;;;2.53;;
23578;SDS011;11967;50.852;4.400;2022-08-25T13:15:44;4.55;;;2.55;;
23578;SDS011;11967;50.852;4.400;2022-08-25T13:18:14;3.72;;;2.13;;
23578;SDS011;11967;50.852;4.400;2022-08-25T13:20:58;4.40;;;2.13;;
23578;SDS011;11967;50.852;4.400;2022-08-25T13:23:41;7.47;;;2.35;;
23578;SDS011;11967;50.852;4.400;2022-08-25T13:26:13;5.40;;;2.15;;
23578;SDS011;11967;50.852;4.400;2022-08-25T13:28:49;2.85;;;2.17;;
23578;SDS011;11967;50.852;4.400;2022-08-25T13:31:27;5.03;;;2.40;;
23578;SDS011;11967;50.852;4.400;2022-08-25T13:36:23;5.25;;;2.08;;
23578;SDS011;11967;50.852;4.400;2022-08-25T13:39:16;4.55;;;2.20;;
23578;SDS011;11967;50.852;4.400;2022-08-25T13:41:44;10.27;;;2.67;;
23578;SDS011;11967;50.852;4.400;2022-08-25T13:44:12;6.90;;;2.60;;
23578;SDS011;11967;50.852;4.400;2022-08-25T13:46:39;7.93;;;2.42;;
23578;SDS011;11967;50.852;4.400;2022-08-25T13:49:06;5.55;;;2.40;;
23578;SDS011;11967;50.852;4.400;2022-08-25T13:51:33;4.18;;;2.33;;
23578;SDS011;11967;50.852;4.400;2022-08-25T13:54:02;6.57;;;2.40;;
23578;SDS011;11967;50.852;4.400;2022-08-25T13:56:35;3.72;;;2.00;;
23578;SDS011;11967;50.852;4.400;2022-08-25T13:59:04;3.60;;;2.15;;
23578;SDS011;11967;50.852;4.400;2022-08-25T14:01:43;4.55;;;2.28;;
23578;SDS011;11967;50.852;4.400;2022-08-25T14:04:21;3.70;;;2.03;;
23578;SDS011;11967;50.852;4.400;2022-08-25T14:07:15;3.50;;;2.35;;
23578;SDS011;11967;50.852;4.400;2022-08-25T14:12:29;12.43;;;3.65;;
23578;SDS011;11967;50.852;4.400;2022-08-25T14:15:06;10.77;;;4.25;;
23578;SDS011;11967;50.852;4.400;2022-08-25T14:17:41;10.90;;;4.03;;
23578;SDS011;11967;50.852;4.400;2022-08-25T14:20:31;14.52;;;4.55;;
23578;SDS011;11967;50.852;4.400;2022-08-25T14:23:01;14.85;;;4.68;;
23578;SDS011;11967;50.852;4.400;2022-08-25T14:25:30;16.17;;;4.40;;
23578;SDS011;11967;50.852;4.400;2022-08-25T14:28:03;12.43;;;4.50;;
23578;SDS011;11967;50.852;4.400;2022-08-25T14:30:33;14.98;;;4.57;;
23578;SDS011;11967;50.852;4.400;2022-08-25T14:33:00;9.65;;;4.68;;
23578;SDS011;11967;50.852;4.400;2022-08-25T14:35:27;9.48;;;3.88;;
23578;SDS011;11967;50.852;4.400;2022-08-25T14:37:54;18.33;;;4.40;;
23578;SDS011;11967;50.852;4.400;2022-08-25T14:40:20;15.20;;;4.05;;
23578;SDS011;11967;50.852;4.400;2022-08-25T14:42:46;11.18;;;3.67;;
23578;SDS011;11967;50.852;4.400;2022-08-25T14:45:13;9.77;;;3.92;;
23578;SDS011;11967;50.852;4.400;2022-08-25T14:47:41;9.80;;;3.78;;
23578;SDS011;11967;50.852;4.400;2022-08-25T14:50:09;9.30;;;3.97;;
23578;SDS011;11967;50.852;4.400;2022-08-25T14:52:35;13.88;;;4.85;;
23578;SDS011;11967;50.852;4.400;2022-08-25T14:55:01;9.50;;;4.22;;
23578;SDS011;11967;50.852;4.400;2022-08-25T14:57:26;15.02;;;4.65;;
23578;SDS011;11967;50.852;4.400;2022-08-25T14:59:52;12.82;;;4.55;;
23578;SDS011;11967;50.852;4.400;2022-08-25T15:02:19;7.78;;;4.60;;
23578;SDS011;11967;50.852;4.400;2022-08-25T15:04:51;14.73;;;7.75;;
23578;SDS011;11967;50.852;4.400;2022-08-25T15:07:22;16.10;;;11.50;;
23578;SDS011;11967;50.852;4.400;2022-08-25T15:10:07;12.65;;;6.05;;
23578;SDS011;11967;50.852;4.400;2022-08-25T15:12:33;10.07;;;5.65;;
23578;SDS011;11967;50.852;4.400;2022-08-25T15:14:59;8.23;;;4.30;;
23578;SDS011;11967;50.852;4.400;2022-08-25T15:17:28;13.80;;;4.55;;
23578;SDS011;11967;50.852;4.400;2022-08-25T15:19:54;8.70;;;4.57;;
23578;SDS011;11967;50.852;4.400;2022-08-25T15:22:20;10.55;;;4.00;;
23578;SDS011;11967;50.852;4.400;2022-08-25T15:24:45;10.20;;;4.68;;
23578;SDS011;11967;50.852;4.400;2022-08-25T15:27:11;11.15;;;5.47;;
23578;SDS011;11967;50.852;4.400;2022-08-25T15:29:39;18.17;;;5.72;;
23578;SDS011;11967;50.852;4.400;2022-08-25T15:32:05;12.73;;;5.70;;
23578;SDS011;11967;50.852;4.400;2022-08-25T15:34:32;10.85;;;6.32;;
23578;SDS011;11967;50.852;4.400;2022-08-25T15:36:59;17.90;;;7.50;;
23578;SDS011;11967;50.852;4.400;2022-08-25T15:39:38;18.70;;;6.32;;
23578;SDS011;11967;50.852;4.400;2022-08-25T15:42:05;19.13;;;7.35;;
23578;SDS011;11967;50.852;4.400;2022-08-25T15:44:33;12.75;;;6.43;;
23578;SDS011;11967;50.852;4.400;2022-08-25T15:46:59;12.88;;;6.50;;
23578;SDS011;11967;50.852;4.400;2022-08-25T15:49:25;15.23;;;7.15;;
23578;SDS011;11967;50.852;4.400;2022-08-25T15:51:51;13.38;;;7.28;;
23578;SDS011;11967;50.852;4.400;2022-08-25T15:54:18;14.95;;;6.90;;
23578;SDS011;11967;50.852;4.400;2022-08-25T15:56:45;15.20;;;7.47;;
23578;SDS011;11967;50.852;4.400;2022-08-25T15:59:11;18.05;;;7.55;;
23578;SDS011;11967;50.852;4.400;2022-08-25T16:01:37;13.68;;;7.20;;
23578;SDS011;11967;50.852;4.400;2022-08-25T16:04:03;13.27;;;6.93;;
23578;SDS011;11967;50.852;4.400;2022-08-25T16:06:29;16.83;;;8.38;;
23578;SDS011;11967;50.852;4.400;2022-08-25T16:08:55;14.63;;;7.80;;
23578;SDS011;11967;50.852;4.400;2022-08-25T16:11:22;12.07;;;8.27;;
23578;SDS011;11967;50.852;4.400;2022-08-25T16:13:50;14.70;;;7.38;;
23578;SDS011;11967;50.852;4.400;2022-08-25T16:16:17;11.57;;;7.63;;
23578;SDS011;11967;50.852;4.400;2022-08-25T16:18:44;13.30;;;7.70;;
23578;SDS011;11967;50.852;4.400;2022-08-25T16:21:10;12.05;;;7.78;;
23578;SDS011;11967;50.852;4.400;2022-08-25T16:23:40;16.08;;;8.50;;
23578;SDS011;11967;50.852;4.400;2022-08-25T16:26:06;18.58;;;9.15;;
23578;SDS011;11967;50.852;4.400;2022-08-25T16:28:37;18.85;;;9.50;;
23578;SDS011;11967;50.852;4.400;2022-08-25T16:31:05;10.70;;;8.88;;
23578;SDS011;11967;50.852;4.400;2022-08-25T16:33:33;15.27;;;8.77;;
23578;SDS011;11967;50.852;4.400;2022-08-25T16:36:06;14.95;;;9.38;;
23578;SDS011;11967;50.852;4.400;2022-08-25T16:38:36;15.52;;;9.80;;
23578;SDS011;11967;50.852;4.400;2022-08-25T16:41:05;16.20;;;9.55;;
23578;SDS011;11967;50.852;4.400;2022-08-25T16:43:32;19.63;;;9.82;;
23578;SDS011;11967;50.852;4.400;2022-08-25T16:46:03;16.45;;;9.55;;
23578;SDS011;11967;50.852;4.400;2022-08-25T16:48:31;18.55;;;9.98;;
23578;SDS011;11967;50.852;4.400;2022-08-25T16:50:57;14.23;;;10.40;;
23578;SDS011;11967;50.852;4.400;2022-08-25T16:53:23;17.23;;;10.13;;
23578;SDS011;11967;50.852;4.400;2022-08-25T16:56:22;16.08;;;10.77;;
23578;SDS011;11967;50.852;4.400;2022-08-25T16:58:50;18.13;;;8.73;;
23578;SDS011;11967;50.852;4.400;2022-08-25T17:01:18;18.58;;;8.70;;
23578;SDS011;11967;50.852;4.400;2022-08-25T17:03:43;14.15;;;8.80;;
23578;SDS011;11967;50.852;4.400;2022-08-25T17:06:10;15.68;;;9.60;;
23578;SDS011;11967;50.852;4.400;2022-08-25T17:08:38;14.13;;;10.27;;
23578;SDS011;11967;50.852;4.400;2022-08-25T17:11:05;14.18;;;8.05;;
23578;SDS011;11967;50.852;4.400;2022-08-25T17:13:40;17.75;;;9.10;;
23578;SDS011;11967;50.852;4.400;2022-08-25T17:16:07;19.33;;;8.65;;
23578;SDS011;11967;50.852;4.400;2022-08-25T17:18:33;14.93;;;8.07;;
23578;SDS011;11967;50.852;4.400;2022-08-25T17:21:01;14.23;;;8.27;;
23578;SDS011;11967;50.852;4.400;2022-08-25T17:23:29;14.98;;;8.73;;
23578;SDS011;11967;50.852;4.400;2022-08-25T17:25:56;16.27;;;8.75;;
23578;SDS011;11967;50.852;4.400;2022-08-25T17:28:22;13.15;;;8.02;;
23578;SDS011;11967;50.852;4.400;2022-08-25T17:30:48;17.80;;;8.20;;
23578;SDS011;11967;50.852;4.400;2022-08-25T17:33:15;16.65;;;8.43;;